createdAt,value
2019-04-16T00:01:04.396Z,84.20
2019-04-16T00:03:34.368Z,82.77
2019-04-16T00:06:05.789Z,83.00
2019-04-16T00:08:37.061Z,87.63
2019-04-16T00:11:13.953Z,81.60
2019-04-16T00:13:45.250Z,88.47
2019-04-16T00:16:14.945Z,85.60
2019-04-16T00:18:56.666Z,85.53
2019-04-16T00:21:38.454Z,92.40
2019-04-16T00:24:09.536Z,87.17
2019-04-16T00:26:39.285Z,88.50
2019-04-16T00:29:08.992Z,86.47
2019-04-16T00:31:39.648Z,87.97
2019-04-16T00:34:13.352Z,89.23
2019-04-16T00:36:40.732Z,89.17
2019-04-16T00:39:10.574Z,88.70
2019-04-16T00:41:41.709Z,89.50
2019-04-16T00:44:11.512Z,88.77
2019-04-16T00:46:41.226Z,94.43
2019-04-16T00:49:10.912Z,89.67
2019-04-16T00:51:41.911Z,90.93
2019-04-16T00:54:11.666Z,91.33
2019-04-16T00:56:43.543Z,85.23
2019-04-16T00:59:12.800Z,86.60
2019-04-16T01:01:43.988Z,87.83
2019-04-16T01:04:13.662Z,85.57
2019-04-16T01:06:43.336Z,87.97
2019-04-16T01:09:13.120Z,89.70
2019-04-16T01:11:43.079Z,91.60
2019-04-16T01:14:12.739Z,91.07
2019-04-16T01:16:42.428Z,87.43
2019-04-16T01:19:12.114Z,88.73
2019-04-16T01:21:44.510Z,87.20
2019-04-16T01:24:13.293Z,88.73
2019-04-16T01:26:43.918Z,89.93
2019-04-16T01:29:17.292Z,90.47
2019-04-16T01:32:10.316Z,92.20
2019-04-16T01:34:56.537Z,88.17
2019-04-16T01:37:27.865Z,90.37
2019-04-16T01:40:01.777Z,86.83
2019-04-16T01:42:32.249Z,89.47
2019-04-16T01:45:02.199Z,92.07
2019-04-16T01:47:35.968Z,93.97
2019-04-16T01:50:03.376Z,88.93
2019-04-16T01:52:33.062Z,94.73
2019-04-16T01:55:02.809Z,87.80
2019-04-16T01:57:32.463Z,91.00
2019-04-16T02:00:06.803Z,89.60
2019-04-16T02:02:33.886Z,86.10
2019-04-16T02:05:04.745Z,88.63
2019-04-16T02:07:34.476Z,89.77
2019-04-16T02:10:07.283Z,86.70
2019-04-16T02:12:37.159Z,89.00
2019-04-16T02:15:10.127Z,90.73
2019-04-16T02:17:39.808Z,90.90
2019-04-16T02:20:09.984Z,87.60
2019-04-16T02:22:42.230Z,87.30
2019-04-16T02:25:12.093Z,84.77
2019-04-16T02:27:43.000Z,91.97
2019-04-16T02:30:13.056Z,90.00
2019-04-16T02:32:42.956Z,87.27
2019-04-16T02:35:13.697Z,85.60
2019-04-16T02:37:43.378Z,91.57
2019-04-16T02:40:18.319Z,86.27
2019-04-16T02:42:44.438Z,86.73
2019-04-16T02:45:14.249Z,88.33
2019-04-16T02:47:43.943Z,81.50
2019-04-16T02:50:15.798Z,88.87
2019-04-16T02:53:03.210Z,83.77
2019-04-16T02:55:49.734Z,89.67
2019-04-16T02:58:33.908Z,92.33
2019-04-16T03:01:00.468Z,89.93
2019-04-16T03:03:45.060Z,91.57
2019-04-16T03:06:14.894Z,85.67
2019-04-16T03:08:44.964Z,91.00
2019-04-16T03:11:17.073Z,87.67
2019-04-16T03:13:46.146Z,93.67
2019-04-16T03:16:37.633Z,91.13
2019-04-16T03:19:06.559Z,92.77
2019-04-16T03:21:37.498Z,92.20
2019-04-16T03:24:09.336Z,91.93
2019-04-16T03:26:38.762Z,90.10
2019-04-16T03:29:08.430Z,87.63
2019-04-16T03:31:39.552Z,83.50
2019-04-16T03:34:09.220Z,85.80
2019-04-16T03:36:39.046Z,86.50
2019-04-16T03:39:12.236Z,84.03
2019-04-16T03:41:40.203Z,89.60
2019-04-16T03:44:09.867Z,88.37
2019-04-16T03:46:40.359Z,85.67
2019-04-16T03:49:11.503Z,84.87
2019-04-16T03:51:41.149Z,85.90
2019-04-16T03:54:10.910Z,86.87
2019-04-16T03:56:40.594Z,85.30
2019-04-16T03:59:11.994Z,80.70
2019-04-16T04:01:45.560Z,80.77
2019-04-16T04:04:13.450Z,86.87
2019-04-16T04:06:43.137Z,88.93
2019-04-16T04:09:12.921Z,82.53
2019-04-16T04:11:42.597Z,85.00
2019-04-16T04:14:12.277Z,79.47
2019-04-16T04:16:42.055Z,82.93
2019-04-16T04:19:15.170Z,87.17
2019-04-16T04:21:43.082Z,80.20
2019-04-16T04:24:12.799Z,83.77
2019-04-16T04:26:42.540Z,79.67
2019-04-16T04:29:12.194Z,81.57
2019-04-16T04:31:41.948Z,79.63
2019-04-16T04:34:15.880Z,75.57
2019-04-16T04:36:42.987Z,81.53
2019-04-16T04:39:15.206Z,78.80
2019-04-16T04:41:44.072Z,83.23
2019-04-16T04:44:13.744Z,79.93
2019-04-16T04:46:46.125Z,79.23
2019-04-16T04:49:14.827Z,81.97
2019-04-16T04:51:44.492Z,84.87
2019-04-16T04:54:14.179Z,78.13
2019-04-16T04:56:43.907Z,89.10
2019-04-16T04:59:13.591Z,81.20
2019-04-16T05:01:43.365Z,86.27
2019-04-16T05:04:20.376Z,82.47
2019-04-16T05:06:49.942Z,83.17
2019-04-16T05:09:19.601Z,82.93
2019-04-16T05:11:50.415Z,79.60
2019-04-16T05:14:20.157Z,85.00
2019-04-16T05:16:49.855Z,79.93
2019-04-16T05:19:19.514Z,86.10
2019-04-16T05:21:50.013Z,80.13
2019-04-16T05:24:22.744Z,81.37
2019-04-16T05:26:52.410Z,86.33
2019-04-16T05:29:22.103Z,86.43
2019-04-16T05:31:54.434Z,86.80
2019-04-16T05:34:25.514Z,78.60
2019-04-16T05:36:55.391Z,84.23
2019-04-16T05:39:28.369Z,79.73
2019-04-16T05:41:58.345Z,88.70
2019-04-16T05:44:33.031Z,83.70
2019-04-16T05:47:01.719Z,82.00
2019-04-16T05:49:33.795Z,81.13
2019-04-16T05:52:04.178Z,78.83
2019-04-16T05:54:35.549Z,84.23
2019-04-16T05:57:25.665Z,79.83
2019-04-16T05:59:53.745Z,82.47
2019-04-16T06:02:25.278Z,78.67
2019-04-16T06:04:55.961Z,84.87
2019-04-16T06:07:26.406Z,86.73
2019-04-16T06:09:56.097Z,87.40
2019-04-16T06:12:27.389Z,83.87
2019-04-16T06:14:58.690Z,83.23
2019-04-16T06:17:35.477Z,79.67
2019-04-16T06:20:19.176Z,92.27
2019-04-16T06:23:03.406Z,86.30
2019-04-16T06:25:40.951Z,84.03
2019-04-16T06:28:12.785Z,86.30
2019-04-16T06:30:52.841Z,81.93
2019-04-16T06:33:24.162Z,81.67
2019-04-16T06:36:15.725Z,85.50
2019-04-16T06:38:47.053Z,86.47
2019-04-16T06:41:41.165Z,85.77
2019-04-16T06:44:03.937Z,83.47
2019-04-16T06:46:49.869Z,92.47
2019-04-16T06:49:23.833Z,83.20
2019-04-16T06:54:54.256Z,87.67
2019-04-16T06:57:28.577Z,82.97
2019-04-16T07:00:08.975Z,88.37
2019-04-16T07:03:01.108Z,86.47
2019-04-16T07:05:33.009Z,83.00
2019-04-16T07:08:04.290Z,86.90
2019-04-16T07:10:44.758Z,81.23
2019-04-16T07:13:11.331Z,92.33
2019-04-16T07:15:41.130Z,84.23
2019-04-16T07:18:10.820Z,84.00
2019-04-16T07:20:45.695Z,88.20
2019-04-16T07:23:14.039Z,86.00
2019-04-16T07:25:44.927Z,82.53
2019-04-16T07:28:31.516Z,86.03
2019-04-16T07:31:05.950Z,81.93
2019-04-16T07:33:40.084Z,88.60
2019-04-16T07:36:11.414Z,81.93
2019-04-16T07:39:00.487Z,79.47
2019-04-16T07:41:31.835Z,88.20
2019-04-16T07:44:09.704Z,84.20
2019-04-16T07:46:37.310Z,83.67
2019-04-16T07:49:26.537Z,87.50
2019-04-16T07:52:13.822Z,85.27
2019-04-16T07:54:45.130Z,85.53
2019-04-16T07:57:17.353Z,84.83
2019-04-16T07:59:47.164Z,83.80
2019-04-16T08:02:17.626Z,79.70
2019-04-16T08:04:48.289Z,83.67
2019-04-16T08:07:20.607Z,80.30
2019-04-16T08:09:49.385Z,82.40
2019-04-16T08:12:30.167Z,81.23
2019-04-16T08:14:50.836Z,83.40
2019-04-16T08:17:20.507Z,80.80
2019-04-16T08:19:55.071Z,86.03
2019-04-16T08:22:23.260Z,84.23
2019-04-16T08:25:02.488Z,82.87
2019-04-16T08:27:28.772Z,82.50
2019-04-16T08:30:02.144Z,83.03
2019-04-16T08:32:29.951Z,84.50
2019-04-16T08:34:59.619Z,80.43
2019-04-16T08:37:29.322Z,85.23
2019-04-16T08:39:58.989Z,87.53
2019-04-16T08:42:30.785Z,84.20
2019-04-16T08:45:00.382Z,80.73
2019-04-16T08:47:31.548Z,87.90
2019-04-16T08:50:01.410Z,81.03
2019-04-16T08:52:31.305Z,83.90
2019-04-16T08:55:00.988Z,85.13
2019-04-16T08:57:32.153Z,90.13
2019-04-16T09:00:02.520Z,83.07
2019-04-16T09:02:32.183Z,81.17
2019-04-16T09:05:05.877Z,82.67
2019-04-16T09:07:41.668Z,89.97
2019-04-16T09:10:18.878Z,86.33
2019-04-16T09:13:01.999Z,86.17
2019-04-16T09:15:23.111Z,84.00
2019-04-16T09:18:10.411Z,86.90
2019-04-16T09:20:41.076Z,88.73
2019-04-16T09:23:10.757Z,89.60
2019-04-16T09:25:45.848Z,88.17
2019-04-16T09:28:25.420Z,87.37
2019-04-16T09:31:06.174Z,91.67
2019-04-16T09:33:40.619Z,91.37
2019-04-16T09:36:14.844Z,89.30
2019-04-16T09:38:53.803Z,84.80
2019-04-16T09:41:30.913Z,91.07
2019-04-16T09:44:01.604Z,97.57
2019-04-16T09:46:50.494Z,96.30
2019-04-16T09:49:04.988Z,93.50
2019-04-16T09:51:34.430Z,90.53
2019-04-16T09:54:04.177Z,97.43
2019-04-16T09:56:33.839Z,96.93
2019-04-16T09:59:10.997Z,91.57
2019-04-16T10:01:42.179Z,99.50
2019-04-16T10:04:13.786Z,95.03
2019-04-16T10:06:44.031Z,91.10
2019-04-16T10:09:13.694Z,94.50
2019-04-16T10:11:44.825Z,93.73
2019-04-16T10:14:14.484Z,92.87
2019-04-16T10:16:44.276Z,91.70
2019-04-16T10:19:13.967Z,98.60
2019-04-16T10:21:44.783Z,92.97
2019-04-16T10:24:16.100Z,96.00
2019-04-16T10:26:50.252Z,102.47
2019-04-16T10:29:21.457Z,92.47
2019-04-16T10:31:52.093Z,99.53
2019-04-16T10:34:22.078Z,92.07
2019-04-16T10:36:51.813Z,102.37
2019-04-16T10:39:34.885Z,98.67
2019-04-16T10:42:22.197Z,99.17
2019-04-16T10:44:59.230Z,96.23
2019-04-16T10:47:36.612Z,94.40
2019-04-16T10:50:14.920Z,96.17
2019-04-16T10:53:02.338Z,94.53
2019-04-16T10:55:49.712Z,97.37
2019-04-16T10:58:37.322Z,93.63
2019-04-16T11:01:11.640Z,97.83
2019-04-16T11:03:42.943Z,96.77
2019-04-16T11:06:19.968Z,95.17
2019-04-16T11:08:49.631Z,94.60
2019-04-16T11:11:19.400Z,94.03
2019-04-16T11:13:59.763Z,91.23
2019-04-16T11:16:22.254Z,93.87
2019-04-16T11:18:54.887Z,93.40
2019-04-16T11:21:23.502Z,102.57
2019-04-16T11:23:54.204Z,96.43
2019-04-16T11:26:23.925Z,94.17
2019-04-16T11:28:53.640Z,94.50
2019-04-16T11:31:26.409Z,94.67
2019-04-16T11:33:56.163Z,95.60
2019-04-16T11:36:30.566Z,96.90
2019-04-16T11:38:57.687Z,97.23
2019-04-16T11:41:27.364Z,93.70
2019-04-16T11:43:57.059Z,87.67
2019-04-16T11:46:28.702Z,99.97
2019-04-16T11:48:58.331Z,97.53
2019-04-16T11:51:28.054Z,98.83
2019-04-16T11:53:57.953Z,95.10
2019-04-16T11:56:27.653Z,92.30
2019-04-16T11:58:57.922Z,94.93
2019-04-16T12:01:44.382Z,99.13
2019-04-16T12:04:18.636Z,95.97
2019-04-16T12:06:53.067Z,96.20
2019-04-16T12:09:24.402Z,92.97
2019-04-16T12:12:04.595Z,91.00
2019-04-16T12:14:38.745Z,92.50
2019-04-16T12:17:08.926Z,89.63
2019-04-16T12:19:46.104Z,88.70
2019-04-16T12:22:26.296Z,92.97
2019-04-16T12:25:09.531Z,89.90
2019-04-16T12:27:57.690Z,90.87
2019-04-16T12:30:32.186Z,89.77
2019-04-16T12:33:15.260Z,88.77
2019-04-16T12:35:47.778Z,90.07
2019-04-16T12:38:19.124Z,95.53
2019-04-16T12:41:08.636Z,93.80
2019-04-16T12:43:42.753Z,85.90
2019-04-16T12:46:23.011Z,92.17
2019-04-16T12:48:54.382Z,89.47
2019-04-16T12:51:32.386Z,88.97
2019-04-16T12:54:12.555Z,89.03
2019-04-16T12:56:59.759Z,89.70
2019-04-16T12:59:48.764Z,87.77
2019-04-16T13:02:30.596Z,91.93
2019-04-16T13:05:04.584Z,89.27
2019-04-16T13:07:39.070Z,89.00
2019-04-16T13:10:13.649Z,83.90
2019-04-16T13:12:44.996Z,96.60
2019-04-16T13:15:17.119Z,90.07
2019-04-16T13:17:51.652Z,90.17
2019-04-16T13:20:40.027Z,87.93
2019-04-16T13:23:11.351Z,90.83
2019-04-16T13:25:44.146Z,93.63
2019-04-16T13:28:13.809Z,91.00
2019-04-16T13:30:43.509Z,87.07
2019-04-16T13:33:13.248Z,93.40
2019-04-16T13:35:42.920Z,99.33
2019-04-16T13:38:14.301Z,96.10
2019-04-16T13:40:43.974Z,88.63
2019-04-16T13:43:15.289Z,86.43
2019-04-16T13:45:45.066Z,89.63
2019-04-16T13:48:18.849Z,88.97
2019-04-16T13:50:50.175Z,91.70
2019-04-16T13:53:33.308Z,91.53
2019-04-16T13:56:20.750Z,88.07
2019-04-16T13:58:59.214Z,88.53
2019-04-16T14:01:46.783Z,84.27
2019-04-16T14:04:16.703Z,91.03
2019-04-16T14:06:46.427Z,88.60
2019-04-16T14:09:16.222Z,90.17
2019-04-16T14:11:45.740Z,94.27
2019-04-16T14:14:18.404Z,89.53
2019-04-16T14:16:48.613Z,96.97
2019-04-16T14:19:18.281Z,89.70
2019-04-16T14:21:47.992Z,92.97
2019-04-16T14:24:17.685Z,87.07
2019-04-16T14:26:47.365Z,89.53
2019-04-16T14:29:18.358Z,87.70
2019-04-16T14:31:48.914Z,85.77
2019-04-16T14:34:23.578Z,86.00
2019-04-16T14:36:56.791Z,87.97
2019-04-16T14:39:35.459Z,84.77
2019-04-16T14:42:05.465Z,89.37
2019-04-16T14:44:36.787Z,90.03
2019-04-16T14:47:07.992Z,86.73
2019-04-16T14:49:37.745Z,85.80
2019-04-16T14:52:07.846Z,92.93
2019-04-16T14:54:39.163Z,82.17
2019-04-16T14:57:11.222Z,83.90
2019-04-16T14:59:55.621Z,91.33
2019-04-16T15:02:38.905Z,89.90
2019-04-16T15:05:15.573Z,89.97
2019-04-16T15:07:46.543Z,84.53
2019-04-16T15:10:35.003Z,89.03
2019-04-16T15:13:22.586Z,85.63
2019-04-16T15:16:21.307Z,87.37
2019-04-16T15:19:06.277Z,87.87
2019-04-16T15:21:53.800Z,87.10
2019-04-16T15:24:25.219Z,87.80
2019-04-16T15:27:11.345Z,86.80
2019-04-16T15:29:45.390Z,86.87
2019-04-16T15:32:19.587Z,83.47
2019-04-16T15:34:50.915Z,90.57
2019-04-16T15:37:25.869Z,86.90
2019-04-16T15:39:59.822Z,91.47
2019-04-16T15:42:48.330Z,80.90
2019-04-16T15:45:19.519Z,87.10
2019-04-16T15:47:59.791Z,92.30
2019-04-16T15:50:35.826Z,88.63
2019-04-16T15:53:07.692Z,84.47
2019-04-16T15:55:47.675Z,80.43
2019-04-16T15:58:24.340Z,79.80
2019-04-16T16:00:55.652Z,82.43
2019-04-16T16:03:28.657Z,91.00
2019-04-16T16:06:16.832Z,93.20
2019-04-16T16:08:49.529Z,88.87
2019-04-16T16:14:14.694Z,86.77
2019-04-16T16:16:44.376Z,89.97
2019-04-16T16:19:14.050Z,89.47
2019-04-16T16:21:43.800Z,86.77
2019-04-16T16:24:13.504Z,94.00
2019-04-16T16:26:43.407Z,85.73
2019-04-16T16:29:13.195Z,93.17
2019-04-16T16:31:44.552Z,86.30
2019-04-16T16:34:14.268Z,92.70
2019-04-16T16:36:43.973Z,86.17
2019-04-16T16:39:13.911Z,85.40
2019-04-16T16:41:46.534Z,92.40
2019-04-16T16:44:15.786Z,87.73
2019-04-16T16:46:57.365Z,89.20
2019-04-16T16:49:27.283Z,84.23
2019-04-16T16:52:14.917Z,89.13
2019-04-16T16:54:46.231Z,88.43
2019-04-16T16:57:17.546Z,84.63
2019-04-16T16:59:51.896Z,84.07
2019-04-16T17:02:23.204Z,82.50
2019-04-16T17:04:57.501Z,83.60
2019-04-16T17:07:27.198Z,87.77
2019-04-16T17:09:56.865Z,78.13
2019-04-16T17:12:26.769Z,82.20
2019-04-16T17:14:56.427Z,82.27
2019-04-16T17:17:26.107Z,82.23
2019-04-16T17:19:55.973Z,84.53
2019-04-16T17:22:25.591Z,90.47
2019-04-16T17:24:55.249Z,80.07
2019-04-16T17:27:24.946Z,80.87
2019-04-16T17:29:54.691Z,82.97
2019-04-16T17:32:24.436Z,77.93
2019-04-16T17:34:54.126Z,81.23
2019-04-16T17:37:28.008Z,85.57
2019-04-16T17:39:57.690Z,83.27
2019-04-16T17:42:37.152Z,82.33
2019-04-16T17:45:15.723Z,80.63
2019-04-16T17:47:55.722Z,86.30
2019-04-16T17:50:39.328Z,83.17
2019-04-16T17:53:15.962Z,79.47
2019-04-16T17:56:03.427Z,87.33
2019-04-16T17:58:37.394Z,79.30
2019-04-16T18:01:14.393Z,85.60
2019-04-16T18:03:51.847Z,80.10
2019-04-16T18:06:23.669Z,76.93
2019-04-16T18:08:54.973Z,79.73
2019-04-16T18:11:26.617Z,79.93
2019-04-16T18:14:04.688Z,79.40
2019-04-16T18:16:40.474Z,80.57
2019-04-16T18:19:17.985Z,76.57
2019-04-16T18:21:55.070Z,78.40
2019-04-16T18:24:35.030Z,77.37
2019-04-16T18:27:12.275Z,76.00
2019-04-16T18:29:50.234Z,79.93
2019-04-16T18:32:32.965Z,79.30
2019-04-16T18:35:04.289Z,80.57
2019-04-16T18:37:35.605Z,79.57
2019-04-16T18:40:08.779Z,80.77
2019-04-16T18:42:55.921Z,78.93
2019-04-16T18:45:33.539Z,74.83
2019-04-16T18:48:12.184Z,80.97
2019-04-16T18:50:36.243Z,74.30
2019-04-16T18:53:09.587Z,80.87
2019-04-16T18:55:37.350Z,75.77
2019-04-16T18:58:07.027Z,76.10
2019-04-16T19:00:47.117Z,80.07
2019-04-16T19:03:16.988Z,80.43
2019-04-16T19:05:46.659Z,84.30
2019-04-16T19:08:17.186Z,85.83
2019-04-16T19:10:46.842Z,79.63
2019-04-16T19:13:19.754Z,79.87
2019-04-16T19:15:47.910Z,78.00
2019-04-16T19:18:20.066Z,74.03
2019-04-16T19:20:51.778Z,76.43
2019-04-16T19:23:22.228Z,72.67
2019-04-16T19:25:55.423Z,73.30
2019-04-16T19:28:24.221Z,72.13
2019-04-16T19:30:54.584Z,75.73
2019-04-16T19:33:24.588Z,76.70
2019-04-16T19:35:54.233Z,73.87
2019-04-16T19:38:23.983Z,74.97
2019-04-16T19:40:53.648Z,74.17
2019-04-16T19:43:24.294Z,77.53
2019-04-16T19:45:54.254Z,77.33
2019-04-16T19:48:35.211Z,76.97
2019-04-16T19:50:55.935Z,78.93
2019-04-16T19:53:25.648Z,78.50
2019-04-16T19:55:55.603Z,76.47
2019-04-16T19:58:25.530Z,73.73
2019-04-16T20:00:57.239Z,77.57
2019-04-16T20:03:30.531Z,78.80
2019-04-16T20:06:01.695Z,75.33
2019-04-16T20:08:36.799Z,74.83
2019-04-16T20:11:03.436Z,75.20
2019-04-16T20:13:33.136Z,75.83
2019-04-16T20:16:02.813Z,77.87
2019-04-16T20:18:32.480Z,71.97
2019-04-16T20:21:02.364Z,72.53
2019-04-16T20:23:32.298Z,73.43
2019-04-16T20:26:02.185Z,71.33
2019-04-16T20:28:34.526Z,73.83
2019-04-16T20:31:04.867Z,73.80
2019-04-16T20:33:34.776Z,74.87
2019-04-16T20:36:06.505Z,70.67
2019-04-16T20:38:37.892Z,74.90
2019-04-16T20:41:07.580Z,72.27
2019-04-16T20:43:37.412Z,73.27
2019-04-16T20:46:07.268Z,73.90
2019-04-16T20:48:36.940Z,78.27
2019-04-16T20:51:06.703Z,79.97
2019-04-16T20:53:38.132Z,75.20
2019-04-16T20:56:10.817Z,74.40
2019-04-16T20:58:39.555Z,78.40
2019-04-16T21:01:09.297Z,77.93
2019-04-16T21:03:39.179Z,73.27
2019-04-16T21:06:11.199Z,72.17
2019-04-16T21:08:40.874Z,70.97
2019-04-16T21:11:12.006Z,69.93
2019-04-16T21:13:41.640Z,73.30
2019-04-16T21:16:12.404Z,71.63
2019-04-16T21:18:42.075Z,74.63
2019-04-16T21:21:12.972Z,70.00
2019-04-16T21:23:42.715Z,71.20
2019-04-16T21:26:12.396Z,70.77
2019-04-16T21:28:53.439Z,70.63
2019-04-16T21:31:33.552Z,72.03
2019-04-16T21:34:05.165Z,71.93
2019-04-16T21:36:39.063Z,70.93
2019-04-16T21:39:29.000Z,73.03
2019-04-16T21:42:04.750Z,72.23
2019-04-16T21:44:34.533Z,69.20
2019-04-16T21:47:04.207Z,68.23
2019-04-16T21:49:38.906Z,65.93
2019-04-16T21:52:08.234Z,68.93
2019-04-16T21:54:40.676Z,69.67
2019-04-16T21:57:13.283Z,71.00
2019-04-16T21:59:42.248Z,67.90
2019-04-16T22:02:16.728Z,71.60
2019-04-16T22:04:46.454Z,69.23
2019-04-16T22:07:16.184Z,75.00
2019-04-16T22:09:46.036Z,69.17
2019-04-16T22:12:16.318Z,68.57
2019-04-16T22:14:46.243Z,70.10
2019-04-16T22:17:16.034Z,75.97
2019-04-16T22:19:53.848Z,71.33
2019-04-16T22:22:17.692Z,72.07
2019-04-16T22:24:47.426Z,69.70
2019-04-16T22:27:17.166Z,70.90
2019-04-16T22:29:47.530Z,68.30
2019-04-16T22:32:17.912Z,66.20
2019-04-16T22:34:47.619Z,68.40
2019-04-16T22:37:17.281Z,73.00
2019-04-16T22:39:51.259Z,71.47
2019-04-16T22:42:26.442Z,66.20
2019-04-16T22:45:09.335Z,70.40
2019-04-16T22:47:40.622Z,70.57
2019-04-16T22:50:16.059Z,71.63
2019-04-16T22:52:44.954Z,67.40
2019-04-16T22:55:13.289Z,72.00
2019-04-16T22:57:42.946Z,69.33
2019-04-16T23:00:14.282Z,69.80
2019-04-16T23:02:47.822Z,69.50
2019-04-16T23:05:15.344Z,74.77
2019-04-16T23:07:45.189Z,72.07
2019-04-16T23:10:17.787Z,70.57
2019-04-16T23:12:47.800Z,69.90
2019-04-16T23:15:17.550Z,71.77
2019-04-16T23:17:47.226Z,72.83
2019-04-16T23:20:28.608Z,71.70
2019-04-16T23:22:48.516Z,71.77
2019-04-16T23:25:18.183Z,69.57
2019-04-16T23:27:47.845Z,74.40
2019-04-16T23:30:18.460Z,72.77
2019-04-16T23:32:49.042Z,69.43
2019-04-16T23:35:18.716Z,72.60
2019-04-16T23:37:48.416Z,71.73
2019-04-16T23:40:18.069Z,69.23
2019-04-16T23:43:05.551Z,66.90
2019-04-16T23:45:36.863Z,72.37
2019-04-16T23:48:08.180Z,70.03
2019-04-16T23:50:45.706Z,69.60
2019-04-16T23:53:21.527Z,69.77
2019-04-16T23:55:55.758Z,71.40
2019-04-16T23:58:28.512Z,70.83
